createdAt,value
2023-02-03T00:01:50.524Z,16.23
2023-02-03T00:04:17.460Z,17.95
2023-02-03T00:06:44.244Z,15.82
2023-02-03T00:09:11.020Z,16.17
2023-02-03T00:11:37.733Z,15.00
2023-02-03T00:14:05.385Z,15.00
2023-02-03T00:16:32.008Z,14.48
2023-02-03T00:18:58.527Z,12.10
2023-02-03T00:21:25.046Z,12.93
2023-02-03T00:23:51.659Z,13.07
2023-02-03T00:26:18.425Z,12.82
2023-02-03T00:28:45.516Z,11.45
2023-02-03T00:31:17.222Z,12.30
2023-02-03T00:33:44.173Z,11.55
2023-02-03T00:36:11.388Z,11.45
2023-02-03T00:38:37.950Z,11.98
2023-02-03T00:41:04.612Z,11.90
2023-02-03T00:43:31.170Z,12.80
2023-02-03T00:45:57.782Z,13.10
2023-02-03T00:48:24.305Z,13.52
2023-02-03T00:50:50.842Z,12.98
2023-02-03T00:53:17.388Z,12.23
2023-02-03T00:55:46.377Z,12.68
2023-02-03T00:58:12.898Z,15.30
2023-02-03T01:00:39.776Z,16.67
2023-02-03T01:03:06.415Z,16.42
2023-02-03T01:05:32.961Z,17.77
2023-02-03T01:08:03.520Z,17.50
2023-02-03T01:10:30.430Z,17.65
2023-02-03T01:12:56.952Z,16.02
2023-02-03T01:15:23.559Z,13.20
2023-02-03T01:17:50.120Z,14.45
2023-02-03T01:20:17.118Z,13.13
2023-02-03T01:22:43.845Z,13.50
2023-02-03T01:25:11.590Z,12.48
2023-02-03T01:27:38.185Z,12.25
2023-02-03T01:30:05.241Z,13.75
2023-02-03T01:32:31.758Z,13.85
2023-02-03T01:34:58.287Z,11.73
2023-02-03T01:37:24.778Z,14.18
2023-02-03T01:39:51.333Z,16.10
2023-02-03T01:42:17.848Z,19.58
2023-02-03T01:44:51.177Z,16.58
2023-02-03T01:47:29.701Z,20.70
2023-02-03T01:50:22.859Z,19.25
2023-02-03T01:52:57.032Z,18.95
2023-02-03T01:55:28.346Z,19.67
2023-02-03T01:58:20.210Z,21.13
2023-02-03T02:00:49.296Z,16.40
2023-02-03T02:03:20.479Z,15.40
2023-02-03T02:05:57.866Z,14.48
2023-02-03T02:08:24.825Z,15.50
2023-02-03T02:10:51.620Z,15.77
2023-02-03T02:13:19.892Z,15.57
2023-02-03T02:15:55.584Z,18.03
2023-02-03T02:18:25.187Z,16.63
2023-02-03T02:21:28.482Z,15.65
2023-02-03T02:24:24.529Z,14.68
2023-02-03T02:27:00.430Z,15.45
2023-02-03T02:29:35.985Z,16.00
2023-02-03T02:32:02.577Z,12.35
2023-02-03T02:34:49.367Z,12.85
2023-02-03T02:37:38.308Z,13.90
2023-02-03T02:40:04.784Z,14.15
2023-02-03T02:43:00.116Z,15.63
2023-02-03T02:45:34.314Z,14.23
2023-02-03T02:48:20.691Z,14.18
2023-02-03T02:50:53.361Z,13.73
2023-02-03T02:53:22.765Z,15.38
2023-02-03T02:55:51.606Z,17.65
2023-02-03T02:58:20.249Z,17.42
2023-02-03T03:00:47.313Z,17.52
2023-02-03T03:03:19.518Z,13.38
2023-02-03T03:05:54.060Z,13.82
2023-02-03T03:08:29.875Z,13.70
2023-02-03T03:10:58.362Z,12.60
2023-02-03T03:13:31.165Z,14.05
2023-02-03T03:16:01.601Z,13.93
2023-02-03T03:18:33.506Z,13.23
2023-02-03T03:21:06.178Z,13.35
2023-02-03T03:23:40.014Z,14.15
2023-02-03T03:26:22.569Z,13.82
2023-02-03T03:28:52.746Z,15.20
2023-02-03T03:31:20.532Z,14.18
2023-02-03T03:33:48.414Z,13.82
2023-02-03T03:36:21.668Z,14.25
2023-02-03T03:38:56.659Z,13.73
2023-02-03T03:41:48.172Z,13.13
2023-02-03T03:44:16.805Z,14.85
2023-02-03T03:46:50.441Z,14.77
2023-02-03T03:49:18.890Z,12.82
2023-02-03T03:51:54.273Z,14.82
2023-02-03T03:54:23.361Z,16.27
2023-02-03T03:57:05.537Z,16.05
2023-02-03T03:59:35.655Z,18.52
2023-02-03T04:02:04.953Z,16.70
2023-02-03T04:04:35.637Z,14.60
2023-02-03T04:07:02.193Z,14.85
2023-02-03T04:09:28.756Z,13.95
2023-02-03T04:12:01.297Z,14.75
2023-02-03T04:14:30.057Z,15.55
2023-02-03T04:16:57.886Z,16.60
2023-02-03T04:19:24.599Z,15.55
2023-02-03T04:21:51.206Z,16.83
2023-02-03T04:24:18.053Z,14.95
2023-02-03T04:26:44.701Z,18.67
2023-02-03T04:29:11.290Z,17.23
2023-02-03T04:31:38.733Z,17.48
2023-02-03T04:34:06.068Z,19.27
2023-02-03T04:36:32.661Z,19.00
2023-02-03T04:38:59.161Z,19.38
2023-02-03T04:41:25.678Z,20.20
2023-02-03T04:43:52.195Z,19.05
2023-02-03T04:46:19.022Z,18.08
2023-02-03T04:48:45.560Z,17.83
2023-02-03T04:51:12.045Z,16.15
2023-02-03T04:53:38.589Z,17.85
2023-02-03T04:56:05.450Z,19.52
2023-02-03T04:58:32.011Z,18.55
2023-02-03T05:00:58.695Z,20.80
2023-02-03T05:03:26.450Z,20.50
2023-02-03T05:05:56.341Z,18.75
2023-02-03T05:08:22.832Z,21.02
2023-02-03T05:10:49.382Z,20.52
2023-02-03T05:13:15.906Z,22.05
2023-02-03T05:15:42.417Z,24.00
2023-02-03T05:18:08.931Z,21.88
2023-02-03T05:20:35.422Z,21.88
2023-02-03T05:23:02.015Z,18.55
2023-02-03T05:25:28.618Z,20.48
2023-02-03T05:27:55.175Z,19.73
2023-02-03T05:30:21.719Z,20.55
2023-02-03T05:32:49.888Z,18.65
2023-02-03T05:35:16.477Z,18.50
2023-02-03T05:37:46.303Z,19.08
2023-02-03T05:40:32.520Z,16.45
2023-02-03T05:42:59.110Z,16.67
2023-02-03T05:45:25.714Z,15.70
2023-02-03T05:47:52.269Z,16.42
2023-02-03T05:50:18.833Z,15.63
2023-02-03T05:52:45.354Z,15.95
2023-02-03T05:55:11.911Z,16.98
2023-02-03T05:57:38.429Z,18.30
2023-02-03T06:00:07.311Z,22.33
2023-02-03T06:02:33.820Z,15.85
2023-02-03T06:05:00.358Z,16.40
2023-02-03T06:07:26.913Z,17.83
2023-02-03T06:09:53.634Z,19.48
2023-02-03T06:12:20.146Z,16.30
2023-02-03T06:14:46.652Z,15.95
2023-02-03T06:17:13.168Z,18.42
2023-02-03T06:19:39.715Z,20.40
2023-02-03T06:22:06.233Z,16.35
2023-02-03T06:24:32.729Z,20.15
2023-02-03T06:26:59.269Z,20.45
2023-02-03T06:29:25.799Z,18.90
2023-02-03T06:31:52.516Z,18.95
2023-02-03T06:34:19.205Z,19.40
2023-02-03T06:36:45.799Z,19.40
2023-02-03T06:39:12.300Z,19.23
2023-02-03T06:41:38.808Z,22.23
2023-02-03T06:44:05.402Z,21.02
2023-02-03T06:46:33.847Z,18.23
2023-02-03T06:49:00.446Z,19.15
2023-02-03T06:51:27.067Z,19.00
2023-02-03T06:53:53.585Z,20.15
2023-02-03T06:56:20.111Z,21.90
2023-02-03T06:58:46.619Z,21.38
2023-02-03T07:01:13.232Z,24.80
2023-02-03T07:03:39.807Z,26.38
2023-02-03T07:06:06.657Z,23.48
2023-02-03T07:08:33.451Z,23.45
2023-02-03T07:11:00.002Z,26.50
2023-02-03T07:13:26.576Z,26.25
2023-02-03T07:15:53.188Z,23.00
2023-02-03T07:18:45.790Z,23.33
2023-02-03T07:21:11.574Z,25.50
2023-02-03T07:23:38.086Z,24.60
2023-02-03T07:26:06.573Z,23.83
2023-02-03T07:28:34.219Z,27.95
2023-02-03T07:31:01.180Z,24.80
2023-02-03T07:33:28.400Z,27.52
2023-02-03T07:35:56.584Z,27.65
2023-02-03T07:38:23.922Z,29.27
2023-02-03T07:40:50.601Z,28.55
2023-02-03T07:43:17.515Z,31.73
2023-02-03T07:45:44.629Z,29.58
2023-02-03T07:48:12.247Z,29.73
2023-02-03T07:50:39.760Z,32.15
2023-02-03T07:53:09.285Z,25.55
2023-02-03T07:55:39.066Z,25.83
2023-02-03T07:58:06.360Z,24.30
2023-02-03T08:00:33.463Z,25.45
2023-02-03T08:03:00.754Z,31.25
2023-02-03T08:05:27.514Z,32.90
2023-02-03T08:07:54.188Z,33.40
2023-02-03T08:10:20.972Z,34.88
2023-02-03T08:12:48.142Z,34.97
2023-02-03T08:15:15.174Z,31.63
2023-02-03T08:17:42.207Z,30.90
2023-02-03T08:20:10.070Z,29.92
2023-02-03T08:22:36.625Z,33.75
2023-02-03T08:25:03.984Z,30.58
2023-02-03T08:27:31.639Z,30.27
2023-02-03T08:29:58.581Z,28.13
2023-02-03T08:32:25.688Z,29.42
2023-02-03T08:34:52.688Z,31.75
2023-02-03T08:37:22.676Z,31.60
2023-02-03T08:39:49.373Z,31.70
2023-02-03T08:42:16.382Z,42.10
2023-02-03T08:44:44.113Z,34.63
2023-02-03T08:47:11.506Z,32.53
2023-02-03T08:49:39.573Z,32.80
2023-02-03T08:52:08.483Z,31.70
2023-02-03T08:54:35.043Z,32.10
2023-02-03T08:57:01.786Z,33.10
2023-02-03T08:59:29.290Z,33.33
2023-02-03T09:01:56.241Z,33.08
2023-02-03T09:04:25.626Z,35.22
2023-02-03T09:06:56.229Z,33.22
2023-02-03T09:09:23.608Z,34.90
2023-02-03T09:11:50.314Z,34.78
2023-02-03T09:14:16.826Z,34.47
2023-02-03T09:16:43.535Z,33.97
2023-02-03T09:19:10.256Z,35.65
2023-02-03T09:21:37.534Z,36.03
2023-02-03T09:24:13.736Z,32.40
2023-02-03T09:26:40.421Z,33.80
2023-02-03T09:29:07.813Z,33.45
2023-02-03T09:31:34.399Z,34.28
2023-02-03T09:34:00.957Z,35.75
2023-02-03T09:36:27.478Z,37.08
2023-02-03T09:38:54.063Z,37.78
2023-02-03T09:41:37.273Z,34.60
2023-02-03T09:44:04.782Z,34.63
2023-02-03T09:46:41.021Z,34.80
2023-02-03T09:49:33.461Z,35.97
2023-02-03T09:52:08.685Z,36.75
2023-02-03T09:54:43.408Z,37.88
2023-02-03T09:57:18.470Z,39.92
2023-02-03T09:59:45.029Z,39.55
2023-02-03T10:02:36.066Z,43.10
2023-02-03T10:05:25.287Z,42.63
2023-02-03T10:08:02.453Z,42.97
2023-02-03T10:10:45.359Z,42.63
2023-02-03T10:13:17.440Z,44.17
2023-02-03T10:16:04.157Z,44.03
2023-02-03T10:18:45.813Z,44.28
2023-02-03T10:21:35.152Z,44.45
2023-02-03T10:24:06.113Z,45.05
2023-02-03T10:26:32.676Z,44.15
2023-02-03T10:29:21.414Z,45.17
2023-02-03T10:31:48.517Z,44.22
2023-02-03T10:34:18.022Z,47.28
2023-02-03T10:36:57.445Z,43.97
2023-02-03T10:39:26.758Z,43.25
2023-02-03T10:41:54.023Z,44.55
2023-02-03T10:44:24.209Z,44.22
2023-02-03T10:46:50.791Z,45.80
2023-02-03T10:49:19.087Z,47.38
2023-02-03T10:51:51.955Z,45.00
2023-02-03T10:54:38.174Z,46.08
2023-02-03T10:57:14.760Z,45.70
2023-02-03T10:59:44.260Z,47.78
2023-02-03T11:02:21.603Z,46.20
2023-02-03T11:04:48.224Z,47.25
2023-02-03T11:07:26.879Z,44.58
2023-02-03T11:12:20.150Z,43.40
2023-02-03T11:14:51.896Z,43.80
2023-02-03T11:17:27.520Z,43.05
2023-02-03T11:20:01.310Z,45.67
2023-02-03T11:22:35.668Z,45.92
2023-02-03T11:25:04.971Z,45.05
2023-02-03T11:27:33.613Z,44.00
2023-02-03T11:30:18.655Z,45.67
2023-02-03T11:32:47.976Z,47.30
2023-02-03T11:35:24.218Z,47.88
2023-02-03T11:37:56.243Z,47.45
2023-02-03T11:40:33.859Z,42.63
2023-02-03T11:43:04.335Z,46.75
2023-02-03T11:45:44.464Z,46.10
2023-02-03T11:48:10.971Z,48.40
2023-02-03T11:50:55.710Z,48.20
2023-02-03T11:53:55.245Z,46.63
2023-02-03T11:56:55.114Z,45.90
2023-02-03T11:59:41.078Z,41.90
2023-02-03T12:02:33.598Z,44.67
2023-02-03T12:05:15.358Z,44.80
2023-02-03T12:07:41.926Z,48.63
2023-02-03T12:10:30.659Z,52.33
2023-02-03T12:13:10.410Z,47.42
2023-02-03T12:15:50.401Z,50.60
2023-02-03T12:18:26.052Z,45.67
2023-02-03T12:21:00.946Z,48.83
2023-02-03T12:24:04.431Z,47.75
2023-02-03T12:26:41.462Z,45.92
2023-02-03T12:29:17.032Z,46.97
2023-02-03T12:32:14.283Z,47.47
2023-02-03T12:34:50.705Z,47.78
2023-02-03T12:37:43.869Z,47.55
2023-02-03T12:40:26.588Z,47.47
2023-02-03T12:43:02.851Z,47.50
2023-02-03T12:45:36.611Z,46.15
2023-02-03T12:48:12.012Z,46.95
2023-02-03T12:50:54.044Z,47.85
2023-02-03T12:53:29.178Z,45.47
2023-02-03T12:56:10.984Z,42.50
2023-02-03T12:58:57.429Z,45.90
2023-02-03T13:01:34.438Z,44.88
2023-02-03T13:04:06.539Z,45.00
2023-02-03T13:07:03.997Z,43.53
2023-02-03T13:10:01.549Z,45.30
2023-02-03T13:12:42.825Z,46.10
2023-02-03T13:15:27.320Z,45.13
2023-02-03T13:18:21.920Z,47.35
2023-02-03T13:20:48.558Z,46.70
2023-02-03T13:23:16.036Z,45.88
2023-02-03T13:25:57.834Z,48.83
2023-02-03T13:29:08.656Z,46.03
2023-02-03T13:31:56.545Z,45.83
2023-02-03T13:34:28.857Z,47.47
2023-02-03T13:37:21.733Z,47.58
2023-02-03T13:39:48.258Z,47.53
2023-02-03T13:42:21.533Z,51.72
2023-02-03T13:44:52.921Z,50.08
2023-02-03T13:47:25.932Z,46.70
2023-02-03T13:50:03.099Z,49.47
2023-02-03T13:52:35.874Z,48.28
2023-02-03T13:55:03.510Z,47.67
2023-02-03T13:57:34.604Z,49.90
2023-02-03T14:00:03.573Z,46.03
2023-02-03T14:02:42.044Z,46.85
2023-02-03T14:05:39.303Z,46.13
2023-02-03T14:08:27.729Z,46.15
2023-02-03T14:11:31.935Z,47.22
2023-02-03T14:14:07.579Z,44.92
2023-02-03T14:16:48.530Z,48.70
2023-02-03T14:19:30.321Z,46.35
2023-02-03T14:22:02.717Z,46.97
2023-02-03T14:24:38.366Z,49.72
2023-02-03T14:27:23.965Z,47.70
2023-02-03T14:30:22.835Z,48.33
2023-02-03T14:32:51.987Z,46.78
2023-02-03T14:35:40.692Z,46.90
2023-02-03T14:40:46.714Z,40.70
2023-02-03T14:43:38.198Z,46.78
2023-02-03T14:46:10.717Z,45.35
2023-02-03T14:48:40.171Z,47.60
2023-02-03T14:51:29.191Z,48.03
2023-02-03T14:54:31.032Z,41.92
2023-02-03T14:57:21.671Z,49.17
2023-02-03T15:00:06.850Z,50.08
2023-02-03T15:02:34.631Z,48.47
2023-02-03T15:05:13.362Z,49.03
2023-02-03T15:07:48.582Z,48.70
2023-02-03T15:10:17.352Z,44.30
2023-02-03T15:12:52.476Z,43.83
2023-02-03T15:15:22.071Z,45.22
2023-02-03T15:17:50.204Z,45.70
2023-02-03T15:20:31.632Z,45.20
2023-02-03T15:22:58.560Z,44.20
2023-02-03T15:25:28.009Z,41.50
2023-02-03T15:27:54.709Z,44.45
2023-02-03T15:30:27.580Z,48.13
2023-02-03T15:33:05.413Z,50.47
2023-02-03T15:35:34.020Z,46.60
2023-02-03T15:38:04.444Z,48.15
2023-02-03T15:40:38.583Z,46.60
2023-02-03T15:43:16.470Z,43.55
2023-02-03T15:46:03.323Z,47.35
2023-02-03T15:48:48.070Z,46.97
2023-02-03T15:51:18.183Z,49.42
2023-02-03T15:53:52.313Z,62.22
2023-02-03T15:56:28.420Z,59.80
2023-02-03T15:58:55.054Z,46.30
2023-02-03T16:01:24.011Z,47.10
2023-02-03T16:03:54.189Z,56.17
2023-02-03T16:06:27.540Z,49.78
2023-02-03T16:08:55.498Z,47.60
2023-02-03T16:11:22.178Z,56.30
2023-02-03T16:13:48.750Z,52.13
2023-02-03T16:16:18.085Z,48.72
2023-02-03T16:18:56.959Z,52.35
2023-02-03T16:21:56.957Z,48.45
2023-02-03T16:24:32.274Z,48.15
2023-02-03T16:27:25.045Z,46.05
2023-02-03T16:30:25.520Z,44.10
2023-02-03T16:33:32.904Z,42.80
2023-02-03T16:36:28.320Z,42.50
2023-02-03T16:39:13.954Z,40.63
2023-02-03T16:41:59.392Z,47.13
2023-02-03T16:44:44.784Z,43.95
2023-02-03T16:47:43.357Z,42.70
2023-02-03T16:50:40.140Z,43.35
2023-02-03T16:53:12.509Z,46.25
2023-02-03T16:55:39.089Z,48.35
2023-02-03T16:58:05.782Z,47.20
2023-02-03T17:00:32.583Z,45.10
2023-02-03T17:03:02.992Z,55.10
2023-02-03T17:05:32.417Z,48.80
2023-02-03T17:07:59.192Z,44.80
2023-02-03T17:10:26.504Z,44.65
2023-02-03T17:12:53.063Z,45.53
2023-02-03T17:15:19.611Z,51.13
2023-02-03T17:17:46.132Z,44.88
2023-02-03T17:20:12.893Z,46.60
2023-02-03T17:22:39.506Z,48.80
2023-02-03T17:25:06.409Z,52.85
2023-02-03T17:27:33.119Z,50.30
2023-02-03T17:29:59.709Z,48.30
2023-02-03T17:32:26.307Z,49.38
2023-02-03T17:34:52.874Z,44.25
2023-02-03T17:37:19.420Z,46.75
2023-02-03T17:53:29.869Z,47.72
2023-02-03T17:55:56.465Z,49.87
2023-02-03T17:58:23.084Z,43.97
2023-02-03T18:00:49.910Z,50.55
2023-02-03T18:03:16.574Z,44.13
2023-02-03T18:05:52.683Z,52.42
2023-02-03T18:08:20.580Z,49.17
2023-02-03T18:10:51.218Z,44.25
2023-02-03T18:13:18.371Z,47.38
2023-02-03T18:15:44.973Z,47.83
2023-02-03T18:18:11.620Z,47.22
2023-02-03T18:20:38.231Z,45.22
2023-02-03T18:23:04.830Z,51.97
2023-02-03T18:25:31.521Z,50.65
2023-02-03T18:27:58.245Z,50.05
2023-02-03T18:30:25.038Z,53.10
2023-02-03T18:32:52.632Z,48.80
2023-02-03T18:35:19.527Z,50.58
2023-02-03T18:37:46.279Z,48.38
2023-02-03T18:40:13.059Z,51.72
2023-02-03T18:42:39.754Z,54.10
2023-02-03T18:45:06.950Z,55.55
2023-02-03T18:47:34.151Z,51.30
2023-02-03T18:50:00.911Z,52.33
2023-02-03T18:52:27.593Z,53.33
2023-02-03T18:54:54.353Z,54.13
2023-02-03T18:57:22.571Z,50.92
2023-02-03T18:59:49.722Z,49.43
2023-02-03T19:02:16.441Z,45.38
2023-02-03T19:04:43.477Z,52.58
2023-02-03T19:07:12.334Z,49.90
2023-02-03T19:09:40.056Z,45.85
2023-02-03T19:12:07.872Z,50.28
2023-02-03T19:14:35.555Z,46.63
2023-02-03T19:17:03.643Z,47.10
2023-02-03T19:19:30.393Z,49.72
2023-02-03T19:21:58.552Z,49.28
2023-02-03T19:24:26.857Z,50.90
2023-02-03T19:26:53.877Z,46.70
2023-02-03T19:29:20.520Z,45.08
2023-02-03T19:31:47.259Z,46.38
2023-02-03T19:34:17.388Z,50.65
2023-02-03T19:36:44.190Z,46.83
2023-02-03T19:39:11.034Z,48.58
2023-02-03T19:41:37.594Z,49.00
2023-02-03T19:44:05.931Z,51.78
2023-02-03T19:46:38.229Z,44.87
2023-02-03T19:49:13.249Z,44.22
2023-02-03T19:51:41.072Z,48.53
2023-02-03T19:54:10.667Z,49.28
2023-02-03T19:56:37.367Z,52.15
2023-02-03T19:59:04.689Z,49.28
2023-02-03T20:01:31.507Z,51.08
2023-02-03T20:03:58.560Z,46.90
2023-02-03T20:06:25.977Z,50.30
2023-02-03T20:08:52.951Z,46.75
2023-02-03T20:11:20.420Z,46.78
2023-02-03T20:13:47.184Z,46.72
2023-02-03T20:16:14.115Z,48.72
2023-02-03T20:18:40.885Z,45.55
2023-02-03T20:21:07.472Z,47.88
2023-02-03T20:23:34.216Z,45.60
2023-02-03T20:26:01.685Z,48.47
2023-02-03T20:28:29.214Z,48.33
2023-02-03T20:30:58.246Z,42.42
2023-02-03T20:35:55.506Z,42.40
2023-02-03T20:38:22.151Z,47.67
2023-02-03T20:40:49.317Z,47.70
2023-02-03T20:43:25.108Z,53.65
2023-02-03T20:45:52.594Z,48.70
2023-02-03T20:48:22.422Z,38.83
2023-02-03T20:50:50.226Z,41.42
2023-02-03T20:53:19.870Z,45.67
2023-02-03T20:55:47.290Z,41.25
2023-02-03T20:58:23.403Z,44.13
2023-02-03T21:00:50.830Z,43.38
2023-02-03T21:03:38.256Z,45.80
2023-02-03T21:06:23.238Z,43.47
2023-02-03T21:08:49.953Z,41.75
2023-02-03T21:11:19.243Z,40.45
2023-02-03T21:13:47.561Z,40.05
2023-02-03T21:16:28.664Z,48.10
2023-02-03T21:19:00.409Z,39.15
2023-02-03T21:21:39.627Z,39.20
2023-02-03T21:24:29.537Z,44.08
2023-02-03T21:26:57.520Z,38.15
2023-02-03T21:29:29.054Z,39.58
2023-02-03T21:31:56.130Z,42.30
2023-02-03T21:34:34.390Z,41.50
2023-02-03T21:37:41.439Z,38.93
2023-02-03T21:40:18.260Z,43.63
2023-02-03T21:42:46.547Z,45.63
2023-02-03T21:45:21.810Z,40.10
2023-02-03T21:47:51.412Z,39.75
2023-02-03T21:50:35.900Z,38.63
2023-02-03T21:53:05.246Z,41.33
2023-02-03T21:55:31.821Z,41.60
2023-02-03T21:57:58.522Z,40.08
2023-02-03T22:00:43.482Z,38.92
2023-02-03T22:03:22.639Z,42.58
2023-02-03T22:05:49.301Z,38.05
2023-02-03T22:08:23.122Z,36.83
2023-02-03T22:10:50.232Z,42.88
2023-02-03T22:13:17.882Z,40.13
2023-02-03T22:15:44.531Z,40.50
2023-02-03T22:18:11.086Z,39.92
2023-02-03T22:20:37.583Z,37.95
2023-02-03T22:23:04.323Z,38.40
2023-02-03T22:25:30.982Z,36.30
2023-02-03T22:27:57.680Z,37.13
2023-02-03T22:30:24.372Z,39.10
2023-02-03T22:32:50.900Z,40.20
2023-02-03T22:35:17.511Z,38.83
2023-02-03T22:37:44.176Z,39.53
2023-02-03T22:40:11.434Z,35.42
2023-02-03T22:42:37.922Z,34.67
2023-02-03T22:45:05.141Z,37.55
2023-02-03T22:47:31.673Z,36.05
2023-02-03T22:49:58.238Z,37.88
2023-02-03T22:52:24.786Z,39.40
2023-02-03T22:54:51.344Z,39.63
2023-02-03T22:57:17.940Z,38.10
2023-02-03T22:59:44.498Z,36.67
2023-02-03T23:02:11.074Z,34.13
2023-02-03T23:04:37.648Z,36.40
2023-02-03T23:07:04.229Z,34.88
2023-02-03T23:09:30.981Z,36.03
2023-02-03T23:11:57.616Z,33.33
2023-02-03T23:14:24.189Z,38.28
2023-02-03T23:16:50.875Z,34.80
2023-02-03T23:19:17.505Z,33.92
2023-02-03T23:21:44.080Z,35.85
2023-02-03T23:24:10.673Z,34.72
2023-02-03T23:26:37.205Z,33.45
2023-02-03T23:29:03.796Z,36.92
2023-02-03T23:31:30.420Z,27.98
2023-02-03T23:34:15.714Z,34.22
2023-02-03T23:36:42.218Z,34.63
2023-02-03T23:39:08.775Z,35.42
2023-02-03T23:41:35.433Z,31.33
2023-02-03T23:44:01.963Z,36.78
2023-02-03T23:46:28.731Z,36.03
2023-02-03T23:48:55.319Z,39.70
2023-02-03T23:51:21.924Z,37.10
2023-02-03T23:53:48.429Z,37.03
2023-02-03T23:56:16.112Z,44.65
2023-02-03T23:58:42.612Z,41.92
